sensor_id;sensor_type;location;lat;lon;timestamp;pressure;altitude;pressure_sealevel;temperature;humidity
9525;BME280;15940;48.734;9.112;2023-05-03T00:00:01;97320.19;;;8.70;81.22
9525;BME280;15940;48.734;9.112;2023-05-03T00:02:34;97321.56;;;8.65;81.28
9525;BME280;15940;48.734;9.112;2023-05-03T00:05:04;97316.00;;;8.69;81.81
9525;BME280;15940;48.734;9.112;2023-05-03T00:07:32;97316.44;;;8.67;81.79
9525;BME280;15940;48.734;9.112;2023-05-03T00:09:59;97321.28;;;8.63;82.40
9525;BME280;15940;48.734;9.112;2023-05-03T00:12:26;97314.06;;;8.60;81.70
9525;BME280;15940;48.734;9.112;2023-05-03T00:14:53;97317.69;;;8.57;81.86
9525;BME280;15940;48.734;9.112;2023-05-03T00:17:19;97326.06;;;8.59;82.55
9525;BME280;15940;48.734;9.112;2023-05-03T00:19:48;97324.41;;;8.52;82.13
9525;BME280;15940;48.734;9.112;2023-05-03T00:22:15;97322.81;;;8.46;81.96
9525;BME280;15940;48.734;9.112;2023-05-03T00:24:42;97319.03;;;8.43;82.35
9525;BME280;15940;48.734;9.112;2023-05-03T00:27:09;97325.81;;;8.39;83.22
9525;BME280;15940;48.734;9.112;2023-05-03T00:29:36;97318.63;;;8.36;82.77
9525;BME280;15940;48.734;9.112;2023-05-03T00:32:03;97321.75;;;8.34;83.79
9525;BME280;15940;48.734;9.112;2023-05-03T00:34:30;97316.50;;;8.30;83.91
9525;BME280;15940;48.734;9.112;2023-05-03T00:36:58;97322.50;;;8.25;83.79
9525;BME280;15940;48.734;9.112;2023-05-03T00:39:28;97317.53;;;8.24;83.77
9525;BME280;15940;48.734;9.112;2023-05-03T00:41:56;97316.66;;;8.18;83.78
9525;BME280;15940;48.734;9.112;2023-05-03T00:44:23;97318.75;;;8.14;83.71
9525;BME280;15940;48.734;9.112;2023-05-03T00:46:51;97305.72;;;8.12;84.06
9525;BME280;15940;48.734;9.112;2023-05-03T00:49:18;97307.66;;;8.12;84.50
9525;BME280;15940;48.734;9.112;2023-05-03T00:51:45;97310.38;;;8.02;83.60
9525;BME280;15940;48.734;9.112;2023-05-03T00:54:13;97297.94;;;7.96;84.00
9525;BME280;15940;48.734;9.112;2023-05-03T00:56:40;97288.66;;;7.88;83.86
9525;BME280;15940;48.734;9.112;2023-05-03T00:59:07;97291.50;;;7.84;84.43
9525;BME280;15940;48.734;9.112;2023-05-03T01:01:35;97296.44;;;7.77;85.36
9525;BME280;15940;48.734;9.112;2023-05-03T01:04:03;97303.19;;;7.72;84.56
9525;BME280;15940;48.734;9.112;2023-05-03T01:06:38;97301.97;;;7.73;85.29
9525;BME280;15940;48.734;9.112;2023-05-03T01:09:16;97301.41;;;7.78;86.19
9525;BME280;15940;48.734;9.112;2023-05-03T01:11:57;97291.81;;;7.68;85.78
9525;BME280;15940;48.734;9.112;2023-05-03T01:14:34;97301.38;;;7.69;85.83
9525;BME280;15940;48.734;9.112;2023-05-03T01:17:08;97300.94;;;7.61;85.91
9525;BME280;15940;48.734;9.112;2023-05-03T01:19:43;97298.06;;;7.56;85.99
9525;BME280;15940;48.734;9.112;2023-05-03T01:22:21;97300.91;;;7.52;86.42
9525;BME280;15940;48.734;9.112;2023-05-03T01:25:00;97291.19;;;7.55;86.28
9525;BME280;15940;48.734;9.112;2023-05-03T01:27:32;97293.56;;;7.53;86.01
9525;BME280;15940;48.734;9.112;2023-05-03T01:29:59;97293.84;;;7.45;86.29
9525;BME280;15940;48.734;9.112;2023-05-03T01:32:44;97282.94;;;7.40;86.08
9525;BME280;15940;48.734;9.112;2023-05-03T01:35:19;97277.94;;;7.29;86.13
9525;BME280;15940;48.734;9.112;2023-05-03T01:37:50;97279.31;;;7.25;87.07
9525;BME280;15940;48.734;9.112;2023-05-03T01:40:20;97280.50;;;7.24;87.55
9525;BME280;15940;48.734;9.112;2023-05-03T01:42:49;97278.25;;;7.22;87.15
9525;BME280;15940;48.734;9.112;2023-05-03T01:45:17;97276.75;;;7.21;87.45
9525;BME280;15940;48.734;9.112;2023-05-03T01:47:44;97282.75;;;7.25;87.74
9525;BME280;15940;48.734;9.112;2023-05-03T01:50:11;97284.69;;;7.25;88.03
9525;BME280;15940;48.734;9.112;2023-05-03T01:52:38;97280.03;;;7.16;87.70
9525;BME280;15940;48.734;9.112;2023-05-03T01:55:06;97282.56;;;7.20;88.63
9525;BME280;15940;48.734;9.112;2023-05-03T01:57:35;97271.50;;;7.18;88.27
9525;BME280;15940;48.734;9.112;2023-05-03T02:00:02;97270.75;;;7.17;87.89
9525;BME280;15940;48.734;9.112;2023-05-03T02:02:30;97275.09;;;7.14;88.48
9525;BME280;15940;48.734;9.112;2023-05-03T02:04:57;97270.72;;;7.08;87.74
9525;BME280;15940;48.734;9.112;2023-05-03T02:07:24;97275.81;;;7.06;88.75
9525;BME280;15940;48.734;9.112;2023-05-03T02:09:51;97277.16;;;7.01;88.23
9525;BME280;15940;48.734;9.112;2023-05-03T02:12:17;97283.72;;;7.00;89.23
9525;BME280;15940;48.734;9.112;2023-05-03T02:14:46;97278.78;;;6.99;88.73
9525;BME280;15940;48.734;9.112;2023-05-03T02:17:13;97275.03;;;6.96;88.62
9525;BME280;15940;48.734;9.112;2023-05-03T02:19:40;97278.47;;;6.97;89.05
9525;BME280;15940;48.734;9.112;2023-05-03T02:22:07;97273.66;;;6.92;88.56
9525;BME280;15940;48.734;9.112;2023-05-03T02:24:34;97273.53;;;6.95;90.41
9525;BME280;15940;48.734;9.112;2023-05-03T02:27:02;97277.16;;;7.01;89.89
9525;BME280;15940;48.734;9.112;2023-05-03T02:29:29;97274.47;;;7.10;89.82
9525;BME280;15940;48.734;9.112;2023-05-03T02:31:58;97270.91;;;7.13;89.54
9525;BME280;15940;48.734;9.112;2023-05-03T02:34:25;97270.75;;;7.17;89.88
9525;BME280;15940;48.734;9.112;2023-05-03T02:36:52;97275.66;;;7.09;89.64
9525;BME280;15940;48.734;9.112;2023-05-03T02:39:19;97275.81;;;7.06;89.89
9525;BME280;15940;48.734;9.112;2023-05-03T02:41:46;97267.94;;;7.21;89.68
9525;BME280;15940;48.734;9.112;2023-05-03T02:44:13;97269.28;;;7.25;89.38
9525;BME280;15940;48.734;9.112;2023-05-03T02:46:40;97272.72;;;7.26;89.54
9525;BME280;15940;48.734;9.112;2023-05-03T02:49:09;97268.34;;;7.19;88.35
9525;BME280;15940;48.734;9.112;2023-05-03T02:51:36;97273.88;;;7.15;88.79
9525;BME280;15940;48.734;9.112;2023-05-03T02:54:03;97266.56;;;7.16;89.22
9525;BME280;15940;48.734;9.112;2023-05-03T02:56:30;97265.50;;;7.13;88.45
9525;BME280;15940;48.734;9.112;2023-05-03T02:58:58;97268.50;;;7.15;88.78
9525;BME280;15940;48.734;9.112;2023-05-03T03:01:25;97268.78;;;7.08;89.00
9525;BME280;15940;48.734;9.112;2023-05-03T03:03:52;97276.41;;;7.10;87.44
9525;BME280;15940;48.734;9.112;2023-05-03T03:06:21;97269.84;;;7.11;88.55
9525;BME280;15940;48.734;9.112;2023-05-03T03:08:47;97265.91;;;6.94;86.93
9525;BME280;15940;48.734;9.112;2023-05-03T03:11:14;97269.19;;;6.98;88.82
9525;BME280;15940;48.734;9.112;2023-05-03T03:13:41;97275.66;;;7.09;89.55
9525;BME280;15940;48.734;9.112;2023-05-03T03:16:09;97267.56;;;7.09;89.58
9525;BME280;15940;48.734;9.112;2023-05-03T03:18:36;97261.44;;;7.09;89.40
9525;BME280;15940;48.734;9.112;2023-05-03T03:21:03;97260.25;;;7.10;89.32
9525;BME280;15940;48.734;9.112;2023-05-03T03:23:31;97262.50;;;7.02;88.62
9525;BME280;15940;48.734;9.112;2023-05-03T03:25:58;97268.94;;;7.05;89.35
9525;BME280;15940;48.734;9.112;2023-05-03T03:28:25;97261.59;;;7.05;89.43
9525;BME280;15940;48.734;9.112;2023-05-03T03:30:52;97271.16;;;7.06;88.75
9525;BME280;15940;48.734;9.112;2023-05-03T03:33:19;97262.50;;;7.02;89.67
9525;BME280;15940;48.734;9.112;2023-05-03T03:35:47;97263.84;;;7.07;89.35
9525;BME280;15940;48.734;9.112;2023-05-03T03:38:14;97272.63;;;6.98;88.50
9525;BME280;15940;48.734;9.112;2023-05-03T03:40:42;97279.38;;;6.94;88.34
9525;BME280;15940;48.734;9.112;2023-05-03T03:43:09;97273.16;;;6.75;88.18
9525;BME280;15940;48.734;9.112;2023-05-03T03:45:36;97273.31;;;6.80;89.41
9525;BME280;15940;48.734;9.112;2023-05-03T03:48:04;97273.16;;;6.75;89.32
9525;BME280;15940;48.734;9.112;2023-05-03T03:50:31;97274.03;;;6.72;89.69
9525;BME280;15940;48.734;9.112;2023-05-03T03:52:58;97282.97;;;6.59;89.67
9525;BME280;15940;48.734;9.112;2023-05-03T03:55:25;97288.78;;;6.58;89.91
9525;BME280;15940;48.734;9.112;2023-05-03T03:57:53;97285.50;;;6.63;91.11
9525;BME280;15940;48.734;9.112;2023-05-03T04:00:21;97288.72;;;6.80;91.13
9525;BME280;15940;48.734;9.112;2023-05-03T04:02:48;97288.16;;;6.85;90.27
9525;BME280;15940;48.734;9.112;2023-05-03T04:05:15;97284.25;;;6.77;90.17
9525;BME280;15940;48.734;9.112;2023-05-03T04:07:42;97285.13;;;6.74;89.81
9525;BME280;15940;48.734;9.112;2023-05-03T04:10:09;97286.63;;;6.75;90.17
9525;BME280;15940;48.734;9.112;2023-05-03T04:12:36;97292.91;;;6.81;90.22
9525;BME280;15940;48.734;9.112;2023-05-03T04:15:07;97291.91;;;6.87;90.21
9525;BME280;15940;48.734;9.112;2023-05-03T04:17:34;97293.56;;;6.85;90.07
9525;BME280;15940;48.734;9.112;2023-05-03T04:20:01;97297.44;;;6.84;89.78
9525;BME280;15940;48.734;9.112;2023-05-03T04:22:31;97303.28;;;6.92;90.24
9525;BME280;15940;48.734;9.112;2023-05-03T04:24:58;97312.47;;;7.03;89.66
9525;BME280;15940;48.734;9.112;2023-05-03T04:27:26;97312.78;;;7.05;89.18
9525;BME280;15940;48.734;9.112;2023-05-03T04:29:53;97316.50;;;7.08;89.42
9525;BME280;15940;48.734;9.112;2023-05-03T04:32:22;97308.31;;;7.11;89.79
9525;BME280;15940;48.734;9.112;2023-05-03T04:34:49;97314.03;;;7.23;89.58
9525;BME280;15940;48.734;9.112;2023-05-03T04:37:17;97315.81;;;7.16;88.29
9525;BME280;15940;48.734;9.112;2023-05-03T04:39:45;97321.81;;;7.21;89.07
9525;BME280;15940;48.734;9.112;2023-05-03T04:42:12;97308.06;;;7.37;89.93
9525;BME280;15940;48.734;9.112;2023-05-03T04:44:39;97313.94;;;7.44;88.12
9525;BME280;15940;48.734;9.112;2023-05-03T04:47:07;97317.53;;;7.51;88.12
9525;BME280;15940;48.734;9.112;2023-05-03T04:49:35;97315.72;;;7.57;88.15
9525;BME280;15940;48.734;9.112;2023-05-03T04:52:04;97312.59;;;7.49;86.67
9525;BME280;15940;48.734;9.112;2023-05-03T04:54:31;97318.88;;;7.46;87.83
9525;BME280;15940;48.734;9.112;2023-05-03T04:56:59;97319.00;;;7.42;87.44
9525;BME280;15940;48.734;9.112;2023-05-03T04:59:26;97319.03;;;7.52;87.65
9525;BME280;15940;48.734;9.112;2023-05-03T05:01:53;97322.03;;;7.54;87.55
9525;BME280;15940;48.734;9.112;2023-05-03T05:04:19;97324.44;;;7.61;87.54
9525;BME280;15940;48.734;9.112;2023-05-03T05:06:49;97328.78;;;7.58;87.89
9525;BME280;15940;48.734;9.112;2023-05-03T05:09:21;97334.03;;;7.71;87.17
9525;BME280;15940;48.734;9.112;2023-05-03T05:11:49;97328.34;;;7.69;86.89
9525;BME280;15940;48.734;9.112;2023-05-03T05:14:16;97320.28;;;7.78;86.76
9525;BME280;15940;48.734;9.112;2023-05-03T05:16:43;97323.41;;;7.77;86.97
9525;BME280;15940;48.734;9.112;2023-05-03T05:19:10;97327.75;;;7.74;86.72
9525;BME280;15940;48.734;9.112;2023-05-03T05:21:38;97327.91;;;7.70;86.37
9525;BME280;15940;48.734;9.112;2023-05-03T05:24:06;97333.13;;;7.65;86.16
9525;BME280;15940;48.734;9.112;2023-05-03T05:26:33;97336.44;;;7.60;86.85
9525;BME280;15940;48.734;9.112;2023-05-03T05:29:00;97334.78;;;7.62;87.27
9525;BME280;15940;48.734;9.112;2023-05-03T05:31:27;97328.34;;;7.69;87.86
9525;BME280;15940;48.734;9.112;2023-05-03T05:33:54;97329.25;;;7.75;87.79
9525;BME280;15940;48.734;9.112;2023-05-03T05:36:21;97334.66;;;7.84;87.68
9525;BME280;15940;48.734;9.112;2023-05-03T05:38:48;97339.44;;;7.89;86.69
9525;BME280;15940;48.734;9.112;2023-05-03T05:41:16;97331.19;;;8.02;87.44
9525;BME280;15940;48.734;9.112;2023-05-03T05:43:43;97326.84;;;8.14;87.17
9525;BME280;15940;48.734;9.112;2023-05-03T05:46:10;97336.59;;;8.29;86.38
9525;BME280;15940;48.734;9.112;2023-05-03T05:48:38;97325.81;;;8.39;85.19
9525;BME280;15940;48.734;9.112;2023-05-03T05:51:06;97334.81;;;8.45;85.20
9525;BME280;15940;48.734;9.112;2023-05-03T05:53:33;97327.91;;;8.44;83.98
9525;BME280;15940;48.734;9.112;2023-05-03T05:56:00;97326.41;;;8.43;85.45
9525;BME280;15940;48.734;9.112;2023-05-03T05:58:28;97325.19;;;8.53;85.04
9525;BME280;15940;48.734;9.112;2023-05-03T06:00:58;97331.75;;;8.61;85.00
9525;BME280;15940;48.734;9.112;2023-05-03T06:03:25;97329.50;;;8.69;84.60
9525;BME280;15940;48.734;9.112;2023-05-03T06:05:52;97325.41;;;8.82;84.40
9525;BME280;15940;48.734;9.112;2023-05-03T06:08:19;97327.91;;;8.95;84.03
9525;BME280;15940;48.734;9.112;2023-05-03T06:10:46;97316.00;;;9.11;83.36
9525;BME280;15940;48.734;9.112;2023-05-03T06:13:14;97331.56;;;9.16;83.22
9525;BME280;15940;48.734;9.112;2023-05-03T06:15:42;97318.75;;;9.26;82.27
9525;BME280;15940;48.734;9.112;2023-05-03T06:18:09;97330.75;;;9.34;81.65
9525;BME280;15940;48.734;9.112;2023-05-03T06:20:36;97330.22;;;9.44;81.63
9525;BME280;15940;48.734;9.112;2023-05-03T06:23:03;97324.31;;;9.55;81.63
9525;BME280;15940;48.734;9.112;2023-05-03T06:25:30;97324.09;;;9.68;80.14
9525;BME280;15940;48.734;9.112;2023-05-03T06:27:56;97316.66;;;9.78;80.26
9525;BME280;15940;48.734;9.112;2023-05-03T06:30:23;97330.56;;;9.85;79.82
9525;BME280;15940;48.734;9.112;2023-05-03T06:32:54;97328.78;;;9.82;79.31
9525;BME280;15940;48.734;9.112;2023-05-03T06:35:21;97328.72;;;9.91;79.88
9525;BME280;15940;48.734;9.112;2023-05-03T06:37:48;97329.31;;;9.95;78.75
9525;BME280;15940;48.734;9.112;2023-05-03T06:40:15;97329.41;;;10.01;78.98
9525;BME280;15940;48.734;9.112;2023-05-03T06:42:42;97327.72;;;10.03;78.27
9525;BME280;15940;48.734;9.112;2023-05-03T06:45:10;97335.56;;;10.25;78.71
9525;BME280;15940;48.734;9.112;2023-05-03T06:47:37;97334.25;;;10.50;78.17
9525;BME280;15940;48.734;9.112;2023-05-03T06:50:09;97339.50;;;10.54;76.64
9525;BME280;15940;48.734;9.112;2023-05-03T06:52:36;97331.94;;;10.58;76.16
9525;BME280;15940;48.734;9.112;2023-05-03T06:55:04;97336.88;;;10.59;76.48
9525;BME280;15940;48.734;9.112;2023-05-03T06:57:31;97339.41;;;10.78;76.37
9525;BME280;15940;48.734;9.112;2023-05-03T06:59:58;97341.53;;;10.88;76.00
9525;BME280;15940;48.734;9.112;2023-05-03T07:02:25;97336.72;;;11.28;75.90
9525;BME280;15940;48.734;9.112;2023-05-03T07:04:52;97331.97;;;11.43;75.34
9525;BME280;15940;48.734;9.112;2023-05-03T07:07:20;97322.22;;;11.86;73.66
9525;BME280;15940;48.734;9.112;2023-05-03T07:09:48;97321.97;;;12.10;72.57
9525;BME280;15940;48.734;9.112;2023-05-03T07:12:16;97315.06;;;12.35;70.27
9525;BME280;15940;48.734;9.112;2023-05-03T07:14:43;97314.91;;;12.70;69.68
9525;BME280;15940;48.734;9.112;2023-05-03T07:17:10;97312.00;;;12.79;68.59
9525;BME280;15940;48.734;9.112;2023-05-03T07:19:38;97305.06;;;13.10;67.49
9525;BME280;15940;48.734;9.112;2023-05-03T07:22:04;97310.09;;;13.65;65.76
9525;BME280;15940;48.734;9.112;2023-05-03T07:24:33;97304.53;;;13.43;66.26
9525;BME280;15940;48.734;9.112;2023-05-03T07:27:00;97307.53;;;13.13;66.24
9525;BME280;15940;48.734;9.112;2023-05-03T07:29:27;97304.06;;;12.76;67.23
9525;BME280;15940;48.734;9.112;2023-05-03T07:31:55;97305.69;;;12.62;68.99
9525;BME280;15940;48.734;9.112;2023-05-03T07:34:22;97306.25;;;12.72;69.03
9525;BME280;15940;48.734;9.112;2023-05-03T07:36:49;97305.72;;;12.99;68.16
9525;BME280;15940;48.734;9.112;2023-05-03T07:39:16;97306.31;;;13.52;68.02
9525;BME280;15940;48.734;9.112;2023-05-03T07:41:44;97308.16;;;13.77;66.52
9525;BME280;15940;48.734;9.112;2023-05-03T07:44:11;97305.22;;;13.92;67.21
9525;BME280;15940;48.734;9.112;2023-05-03T07:46:38;97295.13;;;14.04;65.36
9525;BME280;15940;48.734;9.112;2023-05-03T07:49:06;97299.41;;;14.33;64.11
9525;BME280;15940;48.734;9.112;2023-05-03T07:51:35;97309.28;;;14.30;64.64
9525;BME280;15940;48.734;9.112;2023-05-03T07:54:02;97304.16;;;14.54;63.67
9525;BME280;15940;48.734;9.112;2023-05-03T07:56:30;97298.66;;;14.38;63.77
9525;BME280;15940;48.734;9.112;2023-05-03T07:58:58;97287.72;;;14.21;62.65
9525;BME280;15940;48.734;9.112;2023-05-03T08:01:25;97297.91;;;14.32;65.07
9525;BME280;15940;48.734;9.112;2023-05-03T08:03:53;97289.78;;;14.60;64.57
9525;BME280;15940;48.734;9.112;2023-05-03T08:06:20;97295.47;;;14.84;63.52
9525;BME280;15940;48.734;9.112;2023-05-03T08:08:47;97292.25;;;14.91;63.53
9525;BME280;15940;48.734;9.112;2023-05-03T08:11:14;97291.97;;;15.06;61.67
9525;BME280;15940;48.734;9.112;2023-05-03T08:13:40;97294.94;;;15.30;63.91
9525;BME280;15940;48.734;9.112;2023-05-03T08:16:09;97296.06;;;15.74;61.10
9525;BME280;15940;48.734;9.112;2023-05-03T08:18:36;97300.59;;;16.13;59.78
9525;BME280;15940;48.734;9.112;2023-05-03T08:21:03;97294.84;;;16.16;59.86
9525;BME280;15940;48.734;9.112;2023-05-03T08:23:30;97290.78;;;15.93;59.81
9525;BME280;15940;48.734;9.112;2023-05-03T08:25:57;97297.06;;;15.60;60.17
9525;BME280;15940;48.734;9.112;2023-05-03T08:28:25;97292.22;;;15.19;59.38
9525;BME280;15940;48.734;9.112;2023-05-03T08:30:52;97295.97;;;14.94;62.26
9525;BME280;15940;48.734;9.112;2023-05-03T08:33:20;97301.19;;;14.75;63.18
9525;BME280;15940;48.734;9.112;2023-05-03T08:35:47;97302.13;;;14.38;64.13
9525;BME280;15940;48.734;9.112;2023-05-03T08:38:14;97298.91;;;14.40;64.43
9525;BME280;15940;48.734;9.112;2023-05-03T08:40:42;97299.94;;;14.53;64.92
9525;BME280;15940;48.734;9.112;2023-05-03T08:43:11;97299.69;;;14.57;64.42
9525;BME280;15940;48.734;9.112;2023-05-03T08:45:39;97302.66;;;14.59;64.26
9525;BME280;15940;48.734;9.112;2023-05-03T08:48:06;97301.44;;;14.60;64.54
9525;BME280;15940;48.734;9.112;2023-05-03T08:50:35;97303.16;;;14.97;64.29
9525;BME280;15940;48.734;9.112;2023-05-03T08:53:07;97299.66;;;15.13;61.74
9525;BME280;15940;48.734;9.112;2023-05-03T08:55:34;97296.88;;;15.41;62.00
9525;BME280;15940;48.734;9.112;2023-05-03T08:58:01;97304.94;;;15.86;58.84
9525;BME280;15940;48.734;9.112;2023-05-03T09:00:29;97310.19;;;16.31;63.41
9525;BME280;15940;48.734;9.112;2023-05-03T09:02:57;97308.00;;;16.23;59.77
9525;BME280;15940;48.734;9.112;2023-05-03T09:05:35;97311.00;;;16.55;57.48
9525;BME280;15940;48.734;9.112;2023-05-03T09:08:07;97314.69;;;16.99;57.83
9525;BME280;15940;48.734;9.112;2023-05-03T09:10:37;97311.22;;;17.23;60.22
9525;BME280;15940;48.734;9.112;2023-05-03T09:13:05;97310.34;;;17.58;59.80
9525;BME280;15940;48.734;9.112;2023-05-03T09:15:32;97311.91;;;17.97;58.01
9525;BME280;15940;48.734;9.112;2023-05-03T09:18:12;97308.22;;;17.94;54.39
9525;BME280;15940;48.734;9.112;2023-05-03T09:20:42;97311.13;;;18.02;55.82
9525;BME280;15940;48.734;9.112;2023-05-03T09:23:16;97307.59;;;18.58;54.79
9525;BME280;15940;48.734;9.112;2023-05-03T09:25:46;97302.66;;;18.89;54.48
9525;BME280;15940;48.734;9.112;2023-05-03T09:28:15;97306.22;;;18.33;51.44
9525;BME280;15940;48.734;9.112;2023-05-03T09:30:43;97307.41;;;18.18;53.43
9525;BME280;15940;48.734;9.112;2023-05-03T09:33:10;97308.91;;;18.19;56.84
9525;BME280;15940;48.734;9.112;2023-05-03T09:35:55;97303.16;;;17.98;55.69
9525;BME280;15940;48.734;9.112;2023-05-03T09:38:26;97298.97;;;17.54;55.12
9525;BME280;15940;48.734;9.112;2023-05-03T09:40:53;97300.50;;;17.50;56.56
9525;BME280;15940;48.734;9.112;2023-05-03T09:43:20;97295.94;;;17.09;56.16
9525;BME280;15940;48.734;9.112;2023-05-03T09:45:47;97299.25;;;16.66;57.75
9525;BME280;15940;48.734;9.112;2023-05-03T09:48:15;97304.66;;;17.07;58.78
9525;BME280;15940;48.734;9.112;2023-05-03T09:50:43;97293.09;;;17.45;55.61
9525;BME280;15940;48.734;9.112;2023-05-03T09:53:15;97295.03;;;17.93;55.35
9525;BME280;15940;48.734;9.112;2023-05-03T09:55:43;97294.72;;;17.78;54.87
9525;BME280;15940;48.734;9.112;2023-05-03T09:58:10;97291.19;;;17.34;54.55
9525;BME280;15940;48.734;9.112;2023-05-03T10:00:39;97293.53;;;17.00;55.09
9525;BME280;15940;48.734;9.112;2023-05-03T10:03:09;97300.09;;;17.40;57.57
9525;BME280;15940;48.734;9.112;2023-05-03T10:05:43;97297.84;;;17.87;54.52
9525;BME280;15940;48.734;9.112;2023-05-03T10:08:18;97302.41;;;18.54;54.44
9525;BME280;15940;48.734;9.112;2023-05-03T10:10:49;97297.91;;;19.02;56.73
9525;BME280;15940;48.734;9.112;2023-05-03T10:13:20;97297.91;;;18.89;52.09
9525;BME280;15940;48.734;9.112;2023-05-03T10:15:48;97295.31;;;18.08;53.92
9525;BME280;15940;48.734;9.112;2023-05-03T10:18:19;97284.41;;;17.40;55.77
9525;BME280;15940;48.734;9.112;2023-05-03T10:20:53;97285.66;;;16.91;55.68
9525;BME280;15940;48.734;9.112;2023-05-03T10:23:23;97288.25;;;16.77;57.15
9525;BME280;15940;48.734;9.112;2023-05-03T10:26:14;97286.81;;;17.01;57.42
9525;BME280;15940;48.734;9.112;2023-05-03T10:28:41;97272.81;;;17.04;58.00
9525;BME280;15940;48.734;9.112;2023-05-03T10:31:45;97281.25;;;17.80;56.44
9525;BME280;15940;48.734;9.112;2023-05-03T10:34:23;97275.97;;;18.38;56.40
9525;BME280;15940;48.734;9.112;2023-05-03T10:36:51;97272.59;;;18.45;54.47
9525;BME280;15940;48.734;9.112;2023-05-03T10:39:21;97273.75;;;17.99;56.71
9525;BME280;15940;48.734;9.112;2023-05-03T10:42:00;97275.09;;;18.30;55.82
9525;BME280;15940;48.734;9.112;2023-05-03T10:44:34;97275.09;;;18.94;53.74
9525;BME280;15940;48.734;9.112;2023-05-03T10:47:12;97273.81;;;18.82;53.85
9525;BME280;15940;48.734;9.112;2023-05-03T10:49:39;97269.72;;;18.38;53.94
9525;BME280;15940;48.734;9.112;2023-05-03T10:52:46;97263.44;;;17.67;55.45
9525;BME280;15940;48.734;9.112;2023-05-03T10:55:17;97268.22;;;17.61;56.99
9525;BME280;15940;48.734;9.112;2023-05-03T10:57:45;97268.78;;;18.16;57.20
9525;BME280;15940;48.734;9.112;2023-05-03T11:00:15;97263.47;;;17.86;51.88
9525;BME280;15940;48.734;9.112;2023-05-03T11:03:24;97267.13;;;17.27;55.35
9525;BME280;15940;48.734;9.112;2023-05-03T11:05:56;97254.59;;;16.88;53.99
9525;BME280;15940;48.734;9.112;2023-05-03T11:08:24;97264.34;;;17.08;55.57
9525;BME280;15940;48.734;9.112;2023-05-03T11:10:58;97254.00;;;17.87;57.39
9525;BME280;15940;48.734;9.112;2023-05-03T11:13:27;97251.50;;;18.40;56.13
9525;BME280;15940;48.734;9.112;2023-05-03T11:15:54;97242.63;;;18.66;49.78
9525;BME280;15940;48.734;9.112;2023-05-03T11:18:23;97243.13;;;19.10;53.18
9525;BME280;15940;48.734;9.112;2023-05-03T11:20:51;97243.09;;;19.50;51.03
9525;BME280;15940;48.734;9.112;2023-05-03T11:23:24;97243.19;;;19.84;50.43
9525;BME280;15940;48.734;9.112;2023-05-03T11:25:51;97233.63;;;19.98;45.81
9525;BME280;15940;48.734;9.112;2023-05-03T11:28:20;97232.03;;;20.03;48.17
9525;BME280;15940;48.734;9.112;2023-05-03T11:30:46;97232.34;;;19.99;50.13
9525;BME280;15940;48.734;9.112;2023-05-03T11:33:13;97231.78;;;20.14;53.14
9525;BME280;15940;48.734;9.112;2023-05-03T11:35:41;97234.94;;;20.18;47.87
9525;BME280;15940;48.734;9.112;2023-05-03T11:38:08;97226.09;;;19.64;47.84
9525;BME280;15940;48.734;9.112;2023-05-03T11:40:35;97234.09;;;18.83;48.78
9525;BME280;15940;48.734;9.112;2023-05-03T11:43:04;97230.50;;;18.43;53.01
9525;BME280;15940;48.734;9.112;2023-05-03T11:45:41;97227.53;;;18.73;51.89
9525;BME280;15940;48.734;9.112;2023-05-03T11:48:10;97222.69;;;18.47;50.39
9525;BME280;15940;48.734;9.112;2023-05-03T11:50:45;97228.72;;;18.13;49.86
9525;BME280;15940;48.734;9.112;2023-05-03T11:53:13;97226.78;;;17.89;52.58
9525;BME280;15940;48.734;9.112;2023-05-03T11:55:42;97223.06;;;17.68;52.99
9525;BME280;15940;48.734;9.112;2023-05-03T11:58:12;97217.81;;;18.08;53.99
9525;BME280;15940;48.734;9.112;2023-05-03T12:00:44;97215.94;;;18.80;52.53
9525;BME280;15940;48.734;9.112;2023-05-03T12:03:16;97213.03;;;19.18;49.68
9525;BME280;15940;48.734;9.112;2023-05-03T12:05:44;97207.09;;;19.13;48.05
9525;BME280;15940;48.734;9.112;2023-05-03T12:08:12;97205.94;;;19.35;49.29
9525;BME280;15940;48.734;9.112;2023-05-03T12:10:41;97214.03;;;19.67;46.63
9525;BME280;15940;48.734;9.112;2023-05-03T12:13:07;97212.03;;;19.41;45.63
9525;BME280;15940;48.734;9.112;2023-05-03T12:15:36;97204.03;;;18.77;44.64
9525;BME280;15940;48.734;9.112;2023-05-03T12:18:07;97197.06;;;18.44;48.86
9525;BME280;15940;48.734;9.112;2023-05-03T12:20:35;97208.56;;;18.11;46.79
9525;BME280;15940;48.734;9.112;2023-05-03T12:23:05;97203.59;;;18.09;48.94
9525;BME280;15940;48.734;9.112;2023-05-03T12:25:34;97185.28;;;18.63;50.05
9525;BME280;15940;48.734;9.112;2023-05-03T12:28:03;97201.94;;;19.10;47.19
9525;BME280;15940;48.734;9.112;2023-05-03T12:30:31;97204.03;;;19.44;46.88
9525;BME280;15940;48.734;9.112;2023-05-03T12:33:00;97216.06;;;19.54;48.17
9525;BME280;15940;48.734;9.112;2023-05-03T12:35:28;97200.66;;;18.98;46.57
9525;BME280;15940;48.734;9.112;2023-05-03T12:37:55;97199.25;;;18.33;49.30
9525;BME280;15940;48.734;9.112;2023-05-03T12:40:22;97193.09;;;17.94;49.88
9525;BME280;15940;48.734;9.112;2023-05-03T12:42:53;97188.41;;;18.08;49.57
9525;BME280;15940;48.734;9.112;2023-05-03T12:45:20;97193.75;;;18.65;51.01
9525;BME280;15940;48.734;9.112;2023-05-03T12:47:48;97176.69;;;19.25;47.71
9525;BME280;15940;48.734;9.112;2023-05-03T12:50:15;97192.25;;;19.69;45.95
9525;BME280;15940;48.734;9.112;2023-05-03T12:52:43;97194.69;;;19.73;46.37
9525;BME280;15940;48.734;9.112;2023-05-03T12:55:10;97177.84;;;19.16;45.29
9525;BME280;15940;48.734;9.112;2023-05-03T12:57:37;97181.09;;;18.75;47.99
9525;BME280;15940;48.734;9.112;2023-05-03T13:00:06;97185.88;;;19.01;48.25
9525;BME280;15940;48.734;9.112;2023-05-03T13:02:34;97173.81;;;19.44;45.95
9525;BME280;15940;48.734;9.112;2023-05-03T13:05:01;97181.97;;;19.83;48.12
9525;BME280;15940;48.734;9.112;2023-05-03T13:07:28;97179.41;;;20.19;45.13
9525;BME280;15940;48.734;9.112;2023-05-03T13:09:58;97165.75;;;20.35;44.96
9525;BME280;15940;48.734;9.112;2023-05-03T13:12:25;97166.56;;;20.22;41.89
9525;BME280;15940;48.734;9.112;2023-05-03T13:14:53;97167.66;;;20.19;42.92
9525;BME280;15940;48.734;9.112;2023-05-03T13:17:21;97164.75;;;20.24;44.34
9525;BME280;15940;48.734;9.112;2023-05-03T13:19:48;97169.59;;;20.52;45.00
9525;BME280;15940;48.734;9.112;2023-05-03T13:22:16;97163.88;;;20.71;40.88
9525;BME280;15940;48.734;9.112;2023-05-03T13:24:45;97156.06;;;20.83;41.41